Time;durP1;ratioP1;P1;durP2;ratioP2;P2;SDS_P1;SDS_P2;PMS_P1;PMS_P2;Temp;Humidity;BMP_temperature;BMP_pressure;BME280_temperature;BME280_humidity;BME280_pressure;Samples;Min_cycle;Max_cycle;Signal;HPM_P1;HPM_P2
2023/03/16 00:02:05;;;;;;;6.75;2.50;;;3.80;99.90;;;;;;5144304;27;20039;-69
2023/03/16 00:04:31;;;;;;;8.88;2.50;;;3.80;99.90;;;;;;5094692;28;20073;-69
2023/03/16 00:06:57;;;;;;;7.68;2.17;;;3.90;99.90;;;;;;5099509;28;20071;-69
2023/03/16 00:09:29;;;;;;;6.22;1.80;;;3.90;99.90;;;;;;5132417;27;20042;-69
2023/03/16 00:12:02;;;;;;;;;;;3.80;99.90;;;;;;5142353;27;20043;-69
2023/03/16 00:14:28;;;;;;;6.07;2.00;;;3.80;99.90;;;;;;5092750;28;19915;-69
2023/03/16 00:16:53;;;;;;;7.97;1.85;;;3.80;99.90;;;;;;5095130;28;20040;-69
2023/03/16 00:19:21;;;;;;;7.32;2.17;;;3.80;99.90;;;;;;5095446;28;20035;-69
2023/03/16 00:21:48;;;;;;;7.40;2.25;;;3.80;99.90;;;;;;5112118;28;20044;-69
2023/03/16 00:24:17;;;;;;;6.60;2.20;;;3.80;99.90;;;;;;5077205;28;20032;-69
2023/03/16 00:26:46;;;;;;;4.95;2.00;;;3.80;99.90;;;;;;5091955;28;20381;-69
2023/03/16 00:29:11;;;;;;;8.57;2.15;;;3.80;99.90;;;;;;5108120;28;20040;-69
2023/03/16 00:31:42;;;;;;;4.93;1.77;;;3.80;99.90;;;;;;5091721;28;20413;-69
2023/03/16 00:34:11;;;;;;;4.68;1.88;;;3.80;99.90;;;;;;5108702;28;20039;-69
2023/03/16 00:36:37;;;;;;;7.20;2.08;;;4.00;99.90;;;;;;5091595;28;20044;-69
2023/03/16 00:39:05;;;;;;;8.57;2.63;;;4.00;99.90;;;;;;5108208;28;20032;-69
2023/03/16 00:41:30;;;;;;;8.75;2.35;;;4.00;99.90;;;;;;5128353;27;20380;-69
2023/03/16 00:43:56;;;;;;;5.53;2.05;;;4.00;99.90;;;;;;5141414;27;20031;-69
2023/03/16 00:46:25;;;;;;;7.13;2.58;;;3.90;99.90;;;;;;5112107;27;20093;-69
2023/03/16 00:48:50;;;;;;;8.10;2.25;;;4.00;99.90;;;;;;5110639;28;20040;-69
2023/03/16 00:51:17;;;;;;;9.20;2.90;;;4.00;99.90;;;;;;5115545;28;20062;-69
2023/03/16 00:53:43;;;;;;;5.75;2.15;;;4.00;99.90;;;;;;5118568;27;20043;-69
2023/03/16 00:56:09;;;;;;;6.43;2.70;;;4.00;99.90;;;;;;5120209;27;20036;-68
2023/03/16 00:58:38;;;;;;;6.30;2.42;;;4.00;99.90;;;;;;5112156;28;20090;-68
2023/03/16 01:01:06;;;;;;;7.03;2.20;;;4.00;99.90;;;;;;5112337;28;20028;-69
2023/03/16 01:03:32;;;;;;;7.90;2.50;;;4.00;99.90;;;;;;5112588;27;20043;-69
2023/03/16 01:06:01;;;;;;;7.75;2.70;;;4.10;99.90;;;;;;5095260;28;20040;-69
2023/03/16 01:08:27;;;;;;;6.85;2.67;;;4.00;99.90;;;;;;5095304;28;20079;-69
2023/03/16 01:10:56;;;;;;;6.65;2.70;;;4.00;99.90;;;;;;5094553;28;20036;-69
2023/03/16 01:13:22;;;;;;;6.95;2.78;;;4.10;99.90;;;;;;5131882;27;20106;-69
2023/03/16 01:15:50;;;;;;;7.30;2.83;;;4.10;99.90;;;;;;5094851;28;20562;-69
2023/03/16 01:18:15;;;;;;;8.20;2.72;;;4.20;99.90;;;;;;5113138;28;20118;-69
2023/03/16 01:20:49;;;;;;;11.63;3.08;;;4.10;99.90;;;;;;5094728;28;20460;-69
2023/03/16 01:23:15;;;;;;;8.52;3.08;;;4.10;99.90;;;;;;5112824;28;20081;-69
2023/03/16 01:25:42;;;;;;;5.88;2.80;;;4.10;99.90;;;;;;5102878;28;20077;-69
2023/03/16 01:28:07;;;;;;;9.18;2.90;;;4.20;99.90;;;;;;5115009;28;20510;-69
2023/03/16 01:30:34;;;;;;;8.85;3.22;;;4.20;99.90;;;;;;5098128;28;20032;-69
2023/03/16 01:33:00;;;;;;;8.68;3.47;;;4.30;99.90;;;;;;5114326;28;20108;-69
2023/03/16 01:35:25;;;;;;;8.73;2.85;;;4.40;99.90;;;;;;5112727;28;20479;-69
2023/03/16 01:37:51;;;;;;;7.60;2.88;;;4.40;99.90;;;;;;5128490;27;20043;-69
2023/03/16 01:40:17;;;;;;;7.25;3.33;;;4.40;99.90;;;;;;5107210;27;20066;-69
2023/03/16 01:43:00;;;;;;;9.95;3.67;;;4.30;99.90;;;;;;5118380;27;20046;-69
2023/03/16 01:46:03;;;;;;;10.95;3.47;;;4.30;99.90;;;;;;5109221;28;20028;-69
2023/03/16 01:48:36;;;;;;;9.25;3.55;;;4.50;99.90;;;;;;5130295;27;20043;-69
2023/03/16 01:51:19;;;;;;;7.78;3.50;;;4.50;99.90;;;;;;5148828;27;20120;-69
2023/03/16 01:53:47;;;;;;;8.88;3.10;;;4.50;99.90;;;;;;5095079;28;20123;-69
2023/03/16 01:56:19;;;;;;;9.35;3.55;;;4.50;99.90;;;;;;5086082;28;20044;-69
2023/03/16 01:58:45;;;;;;;10.90;3.83;;;4.50;99.90;;;;;;5084419;28;20043;-69
2023/03/16 02:01:13;;;;;;;6.20;3.28;;;4.50;99.90;;;;;;5114625;28;20400;-69
2023/03/16 02:03:40;;;;;;;8.13;3.13;;;4.40;99.90;;;;;;5109109;28;20440;-69
2023/03/16 02:06:16;;;;;;;9.77;3.30;;;4.40;99.90;;;;;;5114301;28;20044;-69
2023/03/16 02:08:44;;;;;;;8.68;3.47;;;4.40;99.90;;;;;;5087715;28;20072;-69
2023/03/16 02:11:11;;;;;;;8.13;3.78;;;4.40;99.90;;;;;;5126947;27;20407;-68
2023/03/16 02:13:36;;;;;;;10.20;4.40;;;4.40;99.90;;;;;;5114432;28;20044;-69
2023/03/16 02:16:05;;;;;;;9.60;3.65;;;4.40;99.90;;;;;;5113990;28;20036;-69
2023/03/16 02:18:31;;;;;;;6.20;2.17;;;4.40;99.90;;;;;;5119582;27;20047;-69
2023/03/16 02:21:15;;;;;;;10.15;3.70;;;4.50;99.90;;;;;;5127658;27;20032;-69
2023/03/16 02:23:43;;;;;;;8.30;3.15;;;4.60;99.90;;;;;;5093639;28;20066;-69
2023/03/16 02:26:27;;;;;;;8.63;2.92;;;4.50;99.90;;;;;;5101673;28;20051;-69
2023/03/16 02:29:34;;;;;;;8.50;2.85;;;4.50;99.90;;;;;;5089372;28;20043;-69
2023/03/16 02:32:01;;;;;;;7.35;3.00;;;4.70;99.90;;;;;;5097111;28;20047;-69
2023/03/16 02:34:28;;;;;;;6.97;2.90;;;4.60;99.90;;;;;;5112814;28;20448;-69
2023/03/16 02:36:55;;;;;;;9.27;3.17;;;4.60;99.90;;;;;;5095399;28;20032;-69
2023/03/16 02:39:20;;;;;;;7.25;2.65;;;4.60;99.90;;;;;;5113594;28;20084;-69
2023/03/16 02:41:46;;;;;;;8.57;2.97;;;4.60;99.90;;;;;;5147890;27;20563;-69
2023/03/16 02:44:33;;;;;;;4.57;1.98;;;4.60;99.90;;;;;;5113153;27;20035;-69
2023/03/16 02:47:06;;;;;;;5.10;2.00;;;4.60;99.90;;;;;;5109685;28;20097;-69
2023/03/16 02:49:36;;;;;;;7.47;3.05;;;4.70;99.90;;;;;;5126964;27;20040;-69
2023/03/16 02:52:03;;;;;;;2.75;1.17;;;4.70;99.90;;;;;;5093049;28;20118;-69
2023/03/16 02:54:29;;;;;;;5.18;2.80;;;4.70;99.90;;;;;;5091317;28;20044;-69
2023/03/16 02:56:54;;;;;;;6.63;2.40;;;4.70;99.90;;;;;;5126938;27;20042;-69
2023/03/16 02:59:20;;;;;;;4.97;2.15;;;4.70;99.90;;;;;;5109820;28;20506;-69
2023/03/16 03:01:45;;;;;;;4.32;1.88;;;4.70;99.90;;;;;;5082748;28;20134;-69
2023/03/16 03:04:12;;;;;;;5.93;3.00;;;4.70;99.90;;;;;;5103075;28;20031;-69
2023/03/16 03:06:37;;;;;;;6.43;2.60;;;4.70;99.90;;;;;;5104100;28;20126;-68
2023/03/16 03:09:04;;;;;;;8.10;2.80;;;4.80;99.90;;;;;;5105518;28;20127;-69
2023/03/16 03:11:30;;;;;;;6.32;2.72;;;4.60;99.90;;;;;;5081844;28;20503;-69
2023/03/16 03:13:55;;;;;;;8.68;2.88;;;4.60;99.90;;;;;;5095724;27;20059;-69
2023/03/16 03:16:21;;;;;;;7.07;3.03;;;4.60;99.90;;;;;;5089377;28;20495;-69
2023/03/16 03:18:47;;;;;;;4.32;2.42;;;4.60;99.90;;;;;;5129037;27;20039;-69
2023/03/16 03:21:13;;;;;;;8.13;2.95;;;4.60;99.90;;;;;;5080008;28;20114;-69
2023/03/16 03:23:38;;;;;;;6.47;2.67;;;4.60;99.90;;;;;;5095644;28;20143;-69
2023/03/16 03:26:05;;;;;;;8.57;3.38;;;4.60;99.90;;;;;;5122147;27;20050;-69
2023/03/16 03:28:33;;;;;;;5.03;2.30;;;4.60;99.90;;;;;;5084207;28;20483;-69
2023/03/16 03:31:00;;;;;;;9.82;3.05;;;4.60;99.90;;;;;;5093998;28;20076;-68
2023/03/16 03:33:26;;;;;;;5.57;2.80;;;4.60;99.90;;;;;;5089060;28;20070;-69
2023/03/16 03:35:56;;;;;;;8.15;2.80;;;4.50;99.90;;;;;;5087589;28;20035;-69
2023/03/16 03:38:23;;;;;;;5.88;2.35;;;4.60;99.90;;;;;;5111567;28;20039;-69
2023/03/16 03:40:53;;;;;;;8.20;2.80;;;4.70;99.90;;;;;;5089884;28;20126;-69
2023/03/16 03:43:20;;;;;;;7.82;2.78;;;4.60;99.90;;;;;;5109165;28;20028;-69
2023/03/16 03:45:46;;;;;;;5.63;2.70;;;4.60;99.90;;;;;;5100845;28;20478;-69
2023/03/16 03:48:11;;;;;;;8.23;2.60;;;4.60;99.90;;;;;;5132120;27;20044;-69
2023/03/16 03:50:39;;;;;;;6.63;2.38;;;4.60;99.90;;;;;;5133340;27;20448;-69
2023/03/16 03:53:06;;;;;;;6.65;2.90;;;4.60;99.90;;;;;;5095483;28;20027;-68
2023/03/16 03:55:31;;;;;;;6.82;2.70;;;4.70;99.90;;;;;;5110860;28;20387;-69
2023/03/16 03:57:57;;;;;;;6.35;2.33;;;4.70;99.90;;;;;;5098518;28;20114;-69
2023/03/16 04:00:22;;;;;;;4.57;1.65;;;4.60;99.90;;;;;;5074194;28;20084;-69
2023/03/16 04:02:48;;;;;;;5.40;2.35;;;4.70;99.90;;;;;;5083054;28;20043;-69
2023/03/16 04:05:14;;;;;;;7.53;2.50;;;4.70;99.90;;;;;;5110079;28;20039;-69
2023/03/16 04:07:40;;;;;;;7.57;2.72;;;4.70;99.90;;;;;;5111563;28;20593;-68
2023/03/16 04:10:07;;;;;;;5.13;2.53;;;4.70;99.90;;;;;;5090731;28;20488;-69
2023/03/16 04:12:32;;;;;;;6.55;2.70;;;4.70;99.90;;;;;;5095308;28;20128;-69
2023/03/16 04:14:58;;;;;;;4.60;1.80;;;4.70;99.90;;;;;;5111463;28;20071;-70
2023/03/16 04:17:24;;;;;;;4.68;2.25;;;4.70;99.90;;;;;;5109410;28;20032;-69
2023/03/16 04:19:50;;;;;;;7.13;2.78;;;4.70;99.90;;;;;;5113658;28;20035;-69
2023/03/16 04:22:17;;;;;;;6.82;3.15;;;4.70;99.90;;;;;;5099246;28;20046;-68
2023/03/16 04:24:43;;;;;;;5.35;2.03;;;4.70;99.90;;;;;;5100767;28;20043;-69
2023/03/16 04:27:10;;;;;;;6.32;2.60;;;4.70;99.90;;;;;;5147447;27;20419;-68
2023/03/16 04:29:37;;;;;;;8.32;3.03;;;4.70;99.90;;;;;;5130577;27;20038;-68
2023/03/16 04:32:06;;;;;;;6.18;2.33;;;4.70;99.90;;;;;;5089082;28;20054;-68
2023/03/16 04:34:32;;;;;;;9.13;2.95;;;4.60;99.90;;;;;;5118839;27;20062;-69
2023/03/16 04:36:57;;;;;;;10.00;2.75;;;4.60;99.90;;;;;;5096730;28;20414;-69
2023/03/16 04:39:23;;;;;;;8.38;2.97;;;4.60;99.90;;;;;;5114012;28;20031;-69
2023/03/16 04:41:50;;;;;;;9.45;3.80;;;4.70;99.90;;;;;;5111125;28;20071;-69
2023/03/16 04:44:16;;;;;;;7.60;3.10;;;4.70;99.90;;;;;;5114107;28;20040;-68
2023/03/16 04:46:42;;;;;;;8.48;3.10;;;4.60;99.90;;;;;;5096357;28;20085;-69
2023/03/16 04:49:08;;;;;;;6.75;2.50;;;4.60;99.90;;;;;;5112832;27;20039;-69
2023/03/16 04:51:39;;;;;;;7.70;3.00;;;4.70;99.90;;;;;;5109931;28;20496;-68
2023/03/16 04:54:05;;;;;;;6.28;2.75;;;4.70;99.90;;;;;;5079329;28;20152;-69
2023/03/16 04:56:30;;;;;;;4.93;2.30;;;4.70;99.90;;;;;;5108044;28;20047;-69
2023/03/16 04:58:56;;;;;;;5.07;2.35;;;4.70;99.90;;;;;;5099727;28;20114;-69
2023/03/16 05:01:22;;;;;;;8.38;2.88;;;4.80;99.90;;;;;;5115044;27;20047;-68
2023/03/16 05:03:48;;;;;;;7.18;2.35;;;4.80;99.90;;;;;;5101771;28;20540;-69
2023/03/16 05:06:14;;;;;;;8.25;3.15;;;4.80;99.90;;;;;;5130468;27;20503;-69
2023/03/16 05:08:40;;;;;;;8.18;3.00;;;4.80;99.90;;;;;;5114464;28;20115;-69
2023/03/16 05:11:06;;;;;;;4.80;2.38;;;4.80;99.90;;;;;;5113700;28;20143;-69
2023/03/16 05:13:32;;;;;;;6.60;2.67;;;4.80;99.90;;;;;;5095321;28;20076;-68
2023/03/16 05:15:58;;;;;;;4.32;1.80;;;4.70;99.90;;;;;;5093141;28;20381;-69
2023/03/16 05:18:24;;;;;;;8.40;3.15;;;4.80;99.90;;;;;;5134043;27;20036;-69
2023/03/16 05:20:57;;;;;;;5.03;2.20;;;4.80;99.90;;;;;;5112355;27;20034;-69
2023/03/16 05:23:23;;;;;;;6.97;2.45;;;4.80;99.90;;;;;;5096610;28;20036;-69
2023/03/16 05:25:49;;;;;;;6.20;2.90;;;4.80;99.90;;;;;;5113496;28;20264;-68
2023/03/16 05:28:15;;;;;;;9.18;3.60;;;4.80;99.90;;;;;;5148832;27;20395;-69
2023/03/16 05:30:43;;;;;;;3.35;1.90;;;4.70;99.90;;;;;;5107774;28;20036;-68
2023/03/16 05:33:09;;;;;;;8.32;3.17;;;4.60;99.90;;;;;;5102353;27;20036;-69
2023/03/16 05:35:35;;;;;;;8.40;3.30;;;4.60;99.90;;;;;;5105218;28;20027;-69
2023/03/16 05:38:01;;;;;;;7.50;3.63;;;4.60;99.90;;;;;;5092228;28;21254;-69
2023/03/16 05:40:27;;;;;;;7.47;3.00;;;4.60;99.90;;;;;;5115149;28;20058;-68
2023/03/16 05:42:56;;;;;;;6.88;2.58;;;4.70;99.90;;;;;;5082604;28;20036;-68
2023/03/16 05:45:23;;;;;;;6.07;2.72;;;4.70;99.90;;;;;;5109547;28;20396;-69
2023/03/16 05:47:48;;;;;;;10.15;3.30;;;4.80;99.90;;;;;;5083465;28;20035;-69
2023/03/16 05:50:18;;;;;;;5.78;2.15;;;4.80;99.90;;;;;;5128181;27;20125;-68
2023/03/16 05:52:45;;;;;;;8.43;3.70;;;4.80;99.90;;;;;;5125511;27;20036;-68
2023/03/16 05:55:13;;;;;;;7.55;3.10;;;4.80;99.90;;;;;;5113507;28;20399;-69
2023/03/16 05:57:39;;;;;;;7.18;3.53;;;4.80;99.90;;;;;;5079270;28;20048;-69
2023/03/16 06:00:16;;;;;;;8.50;3.38;;;4.60;99.90;;;;;;5096008;27;20049;-69
2023/03/16 06:02:46;;;;;;;8.05;3.10;;;4.60;99.90;;;;;;5098951;28;20035;-68
2023/03/16 06:05:12;;;;;;;8.93;3.63;;;4.60;99.90;;;;;;5137527;27;20056;-69
2023/03/16 06:07:37;;;;;;;7.93;3.40;;;4.60;99.90;;;;;;5094043;28;20082;-68
2023/03/16 06:10:05;;;;;;;7.50;3.30;;;4.70;99.90;;;;;;5114528;28;20051;-69
2023/03/16 06:12:33;;;;;;;7.78;3.40;;;4.70;99.90;;;;;;5093994;28;20050;-69
2023/03/16 06:14:59;;;;;;;7.72;3.22;;;4.70;99.90;;;;;;5110739;28;20551;-69
2023/03/16 06:17:25;;;;;;;7.85;3.38;;;4.70;99.90;;;;;;5091112;28;20032;-69
2023/03/16 06:19:51;;;;;;;10.70;3.63;;;4.60;99.90;;;;;;5095401;27;20042;-69
2023/03/16 06:22:17;;;;;;;4.47;1.92;;;4.70;99.90;;;;;;5093060;28;20115;-69
2023/03/16 06:24:43;;;;;;;8.20;3.10;;;4.90;99.90;;;;;;5111565;28;20036;-69
2023/03/16 06:27:08;;;;;;;6.85;2.63;;;4.80;99.90;;;;;;5109328;27;20039;-69
2023/03/16 06:29:34;;;;;;;6.35;2.72;;;5.00;99.90;;;;;;5114171;28;20134;-69
2023/03/16 06:32:00;;;;;;;7.28;3.08;;;5.00;99.90;;;;;;5104112;27;20048;-69
2023/03/16 06:34:25;;;;;;;7.72;2.92;;;4.90;99.90;;;;;;5095746;28;20043;-69
2023/03/16 06:36:51;;;;;;;10.35;3.63;;;5.00;99.90;;;;;;5129196;27;20058;-69
2023/03/16 06:39:17;;;;;;;6.82;3.25;;;5.00;99.90;;;;;;5089611;28;20373;-69
2023/03/16 06:41:43;;;;;;;9.80;3.65;;;4.90;99.90;;;;;;5140873;27;20039;-69
2023/03/16 06:44:09;;;;;;;7.55;3.35;;;4.90;99.90;;;;;;5109782;28;20031;-69
2023/03/16 06:46:34;;;;;;;6.35;2.67;;;5.00;99.90;;;;;;5103478;28;20040;-69
2023/03/16 06:49:00;;;;;;;3.28;1.73;;;5.10;99.90;;;;;;5114616;27;20050;-69
2023/03/16 06:51:27;;;;;;;8.93;2.90;;;5.10;99.90;;;;;;5093657;28;20078;-69
2023/03/16 06:53:52;;;;;;;6.80;3.35;;;5.00;99.90;;;;;;5090678;28;20035;-70
2023/03/16 06:56:18;;;;;;;5.63;2.72;;;5.10;99.90;;;;;;5112577;28;20096;-69
2023/03/16 06:58:43;;;;;;;6.60;3.10;;;5.10;99.90;;;;;;5108549;28;20039;-69
2023/03/16 07:01:10;;;;;;;5.95;2.90;;;5.10;99.90;;;;;;5115452;27;20077;-69
2023/03/16 07:03:37;;;;;;;6.82;2.35;;;5.20;99.90;;;;;;5091372;28;20403;-69
2023/03/16 07:06:02;;;;;;;4.18;2.22;;;5.30;99.90;;;;;;5106372;28;20047;-69
2023/03/16 07:08:28;;;;;;;5.97;2.58;;;5.30;99.90;;;;;;5106834;28;20043;-69
2023/03/16 07:10:53;;;;;;;9.57;3.25;;;5.30;99.90;;;;;;5100059;28;20043;-69
2023/03/16 07:13:20;;;;;;;7.25;2.63;;;5.30;99.90;;;;;;5082927;28;20508;-69
2023/03/16 07:15:49;;;;;;;7.00;2.67;;;5.20;99.90;;;;;;5092738;28;20035;-69
2023/03/16 07:18:15;;;;;;;4.85;2.30;;;5.30;99.90;;;;;;5092890;28;20398;-69
2023/03/16 07:20:41;;;;;;;6.75;2.60;;;5.30;99.90;;;;;;5079865;28;20028;-69
2023/03/16 07:23:06;;;;;;;22.35;3.53;;;5.30;99.90;;;;;;5094789;28;20494;-69
2023/03/16 07:25:32;;;;;;;9.27;3.03;;;5.30;99.90;;;;;;5075629;28;20038;-70
2023/03/16 07:27:57;;;;;;;7.65;3.25;;;5.20;99.90;;;;;;5096049;28;20040;-69
2023/03/16 07:30:24;;;;;;;6.70;2.72;;;5.30;99.90;;;;;;5106102;27;20043;-69
2023/03/16 07:32:50;;;;;;;5.30;2.25;;;5.40;99.90;;;;;;5089389;28;20453;-69
2023/03/16 07:35:16;;;;;;;7.32;3.05;;;5.40;99.90;;;;;;5092240;28;20043;-69
2023/03/16 07:37:42;;;;;;;7.00;3.28;;;5.40;99.90;;;;;;5119068;27;20036;-69
2023/03/16 07:40:08;;;;;;;6.43;2.47;;;5.30;99.90;;;;;;5079061;28;20034;-69
2023/03/16 07:42:35;;;;;;;4.90;2.17;;;5.50;99.90;;;;;;5097565;28;20435;-69
2023/03/16 07:45:01;;;;;;;7.68;3.17;;;5.50;99.90;;;;;;5098453;28;20105;-69
2023/03/16 07:47:27;;;;;;;6.88;3.17;;;5.50;99.90;;;;;;5094154;28;20453;-69
2023/03/16 07:49:52;;;;;;;6.65;2.65;;;5.40;99.90;;;;;;5092531;28;20094;-69
2023/03/16 07:52:18;;;;;;;7.75;2.90;;;5.50;99.90;;;;;;5087884;28;20047;-69
2023/03/16 07:54:44;;;;;;;6.03;2.78;;;5.60;99.90;;;;;;5105746;28;20039;-69
2023/03/16 07:57:10;;;;;;;7.25;3.45;;;5.50;99.90;;;;;;5094160;28;20050;-69
2023/03/16 07:59:37;;;;;;;6.78;2.78;;;5.60;99.90;;;;;;5091545;28;20414;-69
2023/03/16 08:02:03;;;;;;;6.50;2.47;;;5.60;99.90;;;;;;5102245;28;20066;-70
2023/03/16 08:04:28;;;;;;;4.63;2.38;;;5.70;99.90;;;;;;5092951;28;20024;-69
2023/03/16 08:06:59;;;;;;;5.93;2.42;;;5.70;99.90;;;;;;5092014;28;20127;-69
2023/03/16 08:09:25;;;;;;;6.38;3.45;;;5.70;99.90;;;;;;5078873;28;20039;-69
2023/03/16 08:11:51;;;;;;;6.43;2.42;;;5.60;99.90;;;;;;5104193;28;20502;-69
2023/03/16 08:14:16;;;;;;;7.10;3.10;;;5.60;99.90;;;;;;5112110;28;20154;-69
2023/03/16 08:16:42;;;;;;;4.30;1.83;;;5.60;99.90;;;;;;5106830;28;20123;-69
2023/03/16 08:19:07;;;;;;;6.35;2.53;;;5.70;99.90;;;;;;5107258;28;20041;-69
2023/03/16 08:21:33;;;;;;;6.88;3.20;;;5.80;99.90;;;;;;5097036;28;20123;-69
2023/03/16 08:23:58;;;;;;;6.35;3.33;;;5.80;99.90;;;;;;5102625;28;20036;-69
2023/03/16 08:26:25;;;;;;;6.90;3.10;;;5.80;99.90;;;;;;5100618;28;20430;-69
2023/03/16 08:28:51;;;;;;;6.95;2.72;;;5.60;99.90;;;;;;5131966;27;20073;-69
2023/03/16 08:31:18;;;;;;;8.13;3.70;;;5.70;99.90;;;;;;5106264;28;20089;-69
2023/03/16 08:33:46;;;;;;;5.82;3.15;;;5.80;99.90;;;;;;5081513;28;20124;-69
2023/03/16 08:36:14;;;;;;;7.43;3.78;;;5.80;99.90;;;;;;5084596;28;20075;-69
2023/03/16 08:38:40;;;;;;;6.40;3.10;;;5.70;99.90;;;;;;5079610;28;20150;-69
2023/03/16 08:41:07;;;;;;;6.82;2.92;;;5.80;99.90;;;;;;5091703;28;20036;-69
2023/03/16 08:43:33;;;;;;;6.13;2.50;;;5.80;99.90;;;;;;5127572;27;20031;-70
2023/03/16 08:46:00;;;;;;;5.85;2.67;;;5.70;99.90;;;;;;5092403;28;20043;-69
2023/03/16 08:48:27;;;;;;;6.05;2.50;;;5.80;99.90;;;;;;5092634;28;20063;-69
2023/03/16 08:50:54;;;;;;;6.00;2.33;;;5.80;99.90;;;;;;5088199;28;20056;-69
2023/03/16 08:53:20;;;;;;;7.43;3.08;;;5.90;99.90;;;;;;5107104;28;20040;-69
2023/03/16 08:55:46;;;;;;;9.85;3.83;;;5.80;99.90;;;;;;5089701;28;20037;-69
2023/03/16 08:58:12;;;;;;;6.55;3.10;;;5.80;99.90;;;;;;5101714;28;20035;-69
2023/03/16 09:00:38;;;;;;;6.85;2.92;;;5.70;99.90;;;;;;5088284;28;20040;-69
2023/03/16 09:03:09;;;;;;;8.15;3.33;;;5.70;99.90;;;;;;5126766;27;20108;-69
2023/03/16 09:05:34;;;;;;;9.63;3.45;;;5.70;99.90;;;;;;5116683;28;20065;-69
2023/03/16 09:08:00;;;;;;;5.65;3.00;;;5.70;99.90;;;;;;5093862;28;20051;-69
2023/03/16 09:10:26;;;;;;;8.80;3.00;;;5.80;99.90;;;;;;5095046;28;20044;-69
2023/03/16 09:12:53;;;;;;;7.47;3.22;;;5.80;99.90;;;;;;5095800;28;20487;-69
2023/03/16 09:15:20;;;;;;;6.65;2.63;;;5.70;99.90;;;;;;5115213;28;20123;-69
2023/03/16 09:17:46;;;;;;;8.82;3.28;;;5.80;99.90;;;;;;5095917;28;20040;-69
2023/03/16 09:20:14;;;;;;;8.27;3.35;;;5.80;99.90;;;;;;5077506;28;20480;-69
2023/03/16 09:22:40;;;;;;;7.28;3.17;;;5.80;99.90;;;;;;5131098;27;20081;-69
2023/03/16 09:25:09;;;;;;;4.57;2.22;;;5.80;99.90;;;;;;5106156;28;20126;-69
2023/03/16 09:27:38;;;;;;;5.68;2.78;;;5.90;99.90;;;;;;5113481;28;20122;-69
2023/03/16 09:30:06;;;;;;;5.70;2.78;;;5.90;99.90;;;;;;5096646;28;20529;-69
2023/03/16 09:32:32;;;;;;;8.60;3.45;;;5.80;99.90;;;;;;5095146;28;20079;-69
2023/03/16 09:34:58;;;;;;;7.40;3.38;;;6.00;99.90;;;;;;5109191;28;20050;-70
2023/03/16 09:37:25;;;;;;;5.95;2.40;;;6.00;99.90;;;;;;5082123;28;20039;-69
2023/03/16 09:39:51;;;;;;;7.25;3.38;;;6.00;99.90;;;;;;5076653;28;20061;-69
2023/03/16 09:42:33;;;;;;;8.23;2.58;;;5.90;99.90;;;;;;5094515;28;20404;-69
2023/03/16 09:45:12;;;;;;;6.43;2.45;;;6.00;99.90;;;;;;5092906;28;20511;-69
2023/03/16 09:47:40;;;;;;;7.65;3.53;;;6.00;99.90;;;;;;5077046;28;20048;-69
2023/03/16 09:50:11;;;;;;;7.57;3.78;;;6.10;99.90;;;;;;5097186;28;20056;-69
2023/03/16 09:52:51;;;;;;;6.50;2.53;;;6.10;99.90;;;;;;5098903;27;20074;-69
2023/03/16 09:55:30;;;;;;;9.15;3.53;;;6.10;99.90;;;;;;5076898;28;20040;-69
2023/03/16 09:57:57;;;;;;;11.15;4.47;;;6.30;99.90;;;;;;5083710;28;20040;-69
2023/03/16 10:00:32;;;;;;;6.88;2.90;;;6.20;99.90;;;;;;5094031;28;20531;-69
2023/03/16 10:03:33;;;;;;;7.35;3.08;;;6.30;99.90;;;;;;5094444;28;20429;-69
2023/03/16 10:06:02;;;;;;;5.90;3.20;;;6.40;99.90;;;;;;5097573;28;20043;-70
2023/03/16 10:08:48;;;;;;;5.38;2.63;;;6.40;99.90;;;;;;5112975;28;20097;-70
2023/03/16 10:11:22;;;;;;;8.88;3.80;;;6.40;99.90;;;;;;5096999;28;20115;-70
2023/03/16 10:13:55;;;;;;;7.40;3.50;;;6.40;99.90;;;;;;5110511;28;20074;-70
2023/03/16 10:16:34;;;;;;;7.53;3.30;;;6.50;99.90;;;;;;5104403;28;20373;-69
2023/03/16 10:19:18;;;;;;;6.82;3.10;;;6.60;99.90;;;;;;5092327;28;20040;-69
2023/03/16 10:21:45;;;;;;;7.80;3.00;;;6.50;99.90;;;;;;5092686;28;20055;-70
2023/03/16 10:24:34;;;;;;;7.75;3.20;;;6.50;99.90;;;;;;5099281;28;20064;-70
2023/03/16 10:27:03;;;;;;;9.55;4.10;;;6.50;99.90;;;;;;5122747;27;20166;-70
2023/03/16 10:29:33;;;;;;;6.53;2.92;;;6.60;99.90;;;;;;5112523;28;20036;-70
2023/03/16 10:32:11;;;;;;;8.25;3.88;;;6.60;99.90;;;;;;5114261;28;20062;-70
2023/03/16 10:34:36;;;;;;;8.18;3.03;;;6.60;99.90;;;;;;5092822;28;20042;-70
2023/03/16 10:37:03;;;;;;;8.80;4.30;;;6.50;99.90;;;;;;5146720;27;20126;-70
2023/03/16 10:39:35;;;;;;;4.63;2.28;;;6.60;99.90;;;;;;5126968;27;20039;-70
2023/03/16 10:42:01;;;;;;;7.50;3.08;;;6.70;99.90;;;;;;5139269;27;20483;-70
2023/03/16 10:44:28;;;;;;;7.97;3.47;;;6.70;99.90;;;;;;5099083;27;20034;-69
2023/03/16 10:47:00;;;;;;;6.72;3.25;;;6.70;99.90;;;;;;5114931;27;20062;-70
2023/03/16 10:49:40;;;;;;;9.30;3.55;;;6.70;99.90;;;;;;5112122;28;20039;-70
2023/03/16 10:52:12;;;;;;;6.63;3.00;;;6.70;99.90;;;;;;5075860;28;20036;-70
2023/03/16 10:54:39;;;;;;;;;;;6.70;99.90;;;;;;5144248;27;20054;-70
2023/03/16 10:57:26;;;;;;;6.55;3.22;;;6.60;99.90;;;;;;5095003;28;19920;-69
2023/03/16 10:59:54;;;;;;;9.40;3.10;;;6.70;99.90;;;;;;5092500;28;20146;-69
2023/03/16 11:02:30;;;;;;;4.72;2.08;;;6.80;99.90;;;;;;5106480;27;20046;-69
2023/03/16 11:04:56;;;;;;;8.30;4.10;;;6.70;99.90;;;;;;5083401;27;20078;-69
2023/03/16 11:07:23;;;;;;;9.02;3.65;;;6.80;99.90;;;;;;5102212;27;20388;-70
2023/03/16 11:09:54;;;;;;;3.55;1.55;;;6.80;99.90;;;;;;5074900;28;20032;-69
2023/03/16 11:12:27;;;;;;;5.43;2.78;;;6.80;99.90;;;;;;5077831;28;20079;-69
2023/03/16 11:14:53;;;;;;;7.60;3.70;;;6.80;99.90;;;;;;5094708;28;20086;-69
2023/03/16 11:17:35;;;;;;;4.78;2.22;;;6.80;99.90;;;;;;5076114;28;20032;-69
2023/03/16 11:20:13;;;;;;;;;;;6.80;99.90;;;;;;5128449;27;20043;-69
2023/03/16 11:22:40;;;;;;;4.68;2.42;;;6.80;99.90;;;;;;5108928;27;20257;-69
2023/03/16 11:25:17;;;;;;;8.95;3.22;;;6.80;99.90;;;;;;5078230;28;20089;-69
2023/03/16 11:28:05;;;;;;;6.47;3.47;;;6.80;99.90;;;;;;5074674;28;20039;-69
2023/03/16 11:31:00;;;;;;;8.27;3.30;;;6.90;99.90;;;;;;5092578;28;20062;-70
2023/03/16 11:33:26;;;;;;;7.75;3.17;;;6.90;99.90;;;;;;5123654;27;20031;-69
2023/03/16 11:36:13;;;;;;;5.25;2.58;;;6.90;99.90;;;;;;5081238;28;20032;-69
2023/03/16 11:39:05;;;;;;;6.97;3.33;;;6.90;99.90;;;;;;5094982;28;20039;-69
2023/03/16 11:41:40;;;;;;;6.43;2.27;;;6.90;99.90;;;;;;5074339;28;20032;-69
2023/03/16 11:44:20;;;;;;;7.93;3.53;;;7.00;99.90;;;;;;5074883;28;20045;-69
2023/03/16 11:47:23;;;;;;;6.20;2.97;;;7.00;99.90;;;;;;5089471;28;20050;-69
2023/03/16 11:50:13;;;;;;;6.30;3.13;;;7.00;99.90;;;;;;5098841;28;20039;-69
2023/03/16 11:52:53;;;;;;;8.38;3.78;;;7.10;99.90;;;;;;5089722;28;20568;-69
2023/03/16 11:55:38;;;;;;;6.10;2.50;;;7.10;99.90;;;;;;5081730;28;20046;-69
2023/03/16 11:58:42;;;;;;;5.15;1.92;;;7.20;99.90;;;;;;5107924;28;20035;-69
2023/03/16 12:01:26;;;;;;;8.02;3.30;;;7.20;99.90;;;;;;5131591;27;20044;-69
2023/03/16 12:03:57;;;;;;;6.90;2.95;;;7.20;99.90;;;;;;5110335;28;20043;-69
2023/03/16 12:06:37;;;;;;;4.78;2.40;;;7.30;99.90;;;;;;5109961;28;20043;-69
2023/03/16 12:09:23;;;;;;;4.05;2.00;;;7.30;99.90;;;;;;5094699;28;20071;-69
2023/03/16 12:12:03;;;;;;;7.00;2.55;;;7.30;99.90;;;;;;5111811;28;20039;-69
2023/03/16 12:14:37;;;;;;;8.43;3.70;;;7.40;99.90;;;;;;5107546;28;20073;-69
2023/03/16 12:17:14;;;;;;;5.22;2.70;;;7.50;99.90;;;;;;5081196;28;20757;-69
2023/03/16 12:20:14;;;;;;;8.68;3.60;;;7.60;99.90;;;;;;5120959;28;20425;-69
2023/03/16 12:22:48;;;;;;;7.20;3.47;;;7.60;99.90;;;;;;5091700;28;20134;-69
2023/03/16 12:25:23;;;;;;;8.43;3.03;;;7.60;99.90;;;;;;5132260;27;20044;-69
2023/03/16 12:27:53;;;;;;;7.13;3.00;;;7.70;99.90;;;;;;5082638;28;20036;-70
2023/03/16 12:30:35;;;;;;;5.93;2.70;;;7.70;99.90;;;;;;5092626;28;20039;-69
2023/03/16 12:33:38;;;;;;;9.55;3.28;;;7.80;99.90;;;;;;5076218;28;20036;-69
2023/03/16 12:36:42;;;;;;;8.05;3.30;;;7.80;99.90;;;;;;5091728;28;20048;-69
2023/03/16 12:39:18;;;;;;;6.18;2.50;;;7.80;99.90;;;;;;5093858;28;20552;-69
2023/03/16 12:42:02;;;;;;;6.15;2.63;;;7.90;99.90;;;;;;5097067;28;20036;-69
2023/03/16 12:44:33;;;;;;;8.10;2.97;;;8.00;99.90;;;;;;5138617;27;20031;-69
2023/03/16 12:47:35;;;;;;;8.02;2.58;;;8.00;99.90;;;;;;5098052;28;20031;-69
2023/03/16 12:50:10;;;;;;;6.15;3.22;;;8.10;99.90;;;;;;5097555;28;20040;-69
2023/03/16 12:52:45;;;;;;;9.48;3.70;;;8.20;99.90;;;;;;5095714;28;20124;-69
2023/03/16 12:55:17;;;;;;;5.55;2.75;;;8.30;99.90;;;;;;5094379;28;20032;-69
2023/03/16 12:57:45;;;;;;;6.05;3.20;;;8.40;99.90;;;;;;5101711;28;20496;-69
2023/03/16 13:00:13;;;;;;;7.28;3.45;;;8.30;99.90;;;;;;5095777;28;20480;-69
2023/03/16 13:02:58;;;;;;;7.47;3.03;;;8.30;99.90;;;;;;5083962;28;20070;-69
2023/03/16 13:05:31;;;;;;;6.10;2.97;;;8.30;99.90;;;;;;5077321;28;20043;-69
2023/03/16 13:08:07;;;;;;;7.70;3.47;;;8.40;99.90;;;;;;5102813;27;20059;-69
2023/03/16 13:10:33;;;;;;;6.00;3.08;;;8.50;99.90;;;;;;5097439;28;20059;-69
2023/03/16 13:13:14;;;;;;;7.20;2.95;;;8.40;99.90;;;;;;5077275;28;20215;-69